Terminal Aerodrome Forecast
Issued by NWS Austin/San Antonio, TX

Home | Current Version | Previous Version | Text Only | Print | Product List | Glossary On
Versions: 1 2 3 4 5 6 7 8 9 10 11 12 13 14 15 16 17 18 19 20 21 22 23 24 25 26 27 28 29 30 31 32
000
FTUS44 KEWX 300849 AAB
TAFSAT
TAF AMD
KSAT 300849Z 3009/3112 11008KT P6SM VCSH BKN009 OVC022
     FM301300 30006KT 5SM -TSRA BR OVC007CB
     FM301600 15008KT P6SM VCSH OVC040
     FM301800 14007KT P6SM OVC015
     FM302000 12008KT P6SM BKN050
     FM310500 14007KT P6SM OVC013
     FM310800 15008KT P6SM OVC007=

USA.gov is the U.S. government's official web portal to all federal, state and local government web resources and services.